sensor_id;sensor_type;location;lat;lon;timestamp;temperature;humidity
26081;DHT22;13991;51.174;4.438;2022-12-18T00:01:32;-1.90;99.90
26081;DHT22;13991;51.174;4.438;2022-12-18T00:03:59;-1.90;99.90
26081;DHT22;13991;51.174;4.438;2022-12-18T00:06:26;-1.80;99.90
26081;DHT22;13991;51.174;4.438;2022-12-18T00:08:54;-1.90;99.90
26081;DHT22;13991;51.174;4.438;2022-12-18T00:11:24;-1.90;99.90
26081;DHT22;13991;51.174;4.438;2022-12-18T00:13:51;-1.90;99.90
26081;DHT22;13991;51.174;4.438;2022-12-18T00:16:19;-1.90;99.90
26081;DHT22;13991;51.174;4.438;2022-12-18T00:18:47;-1.90;99.90
26081;DHT22;13991;51.174;4.438;2022-12-18T00:21:13;-2.00;99.90
26081;DHT22;13991;51.174;4.438;2022-12-18T00:23:40;-2.00;99.90
26081;DHT22;13991;51.174;4.438;2022-12-18T00:26:12;-2.10;99.90
26081;DHT22;13991;51.174;4.438;2022-12-18T00:28:38;-2.10;99.90
26081;DHT22;13991;51.174;4.438;2022-12-18T00:31:04;-2.10;99.90
26081;DHT22;13991;51.174;4.438;2022-12-18T00:33:31;-2.20;99.90
26081;DHT22;13991;51.174;4.438;2022-12-18T00:36:04;-2.10;99.90
26081;DHT22;13991;51.174;4.438;2022-12-18T00:38:30;-2.10;99.90
26081;DHT22;13991;51.174;4.438;2022-12-18T00:40:56;-2.10;99.90
26081;DHT22;13991;51.174;4.438;2022-12-18T00:43:25;-2.10;99.90
26081;DHT22;13991;51.174;4.438;2022-12-18T00:45:50;-2.10;99.90
26081;DHT22;13991;51.174;4.438;2022-12-18T00:48:16;-2.10;99.90
26081;DHT22;13991;51.174;4.438;2022-12-18T00:50:44;-2.10;99.90
26081;DHT22;13991;51.174;4.438;2022-12-18T00:53:10;-2.20;99.90
26081;DHT22;13991;51.174;4.438;2022-12-18T00:55:40;-2.10;99.90
26081;DHT22;13991;51.174;4.438;2022-12-18T00:58:06;-2.30;99.90
26081;DHT22;13991;51.174;4.438;2022-12-18T01:00:38;-2.20;99.90
26081;DHT22;13991;51.174;4.438;2022-12-18T01:03:05;-2.30;99.90
26081;DHT22;13991;51.174;4.438;2022-12-18T01:05:33;-2.30;99.90
26081;DHT22;13991;51.174;4.438;2022-12-18T01:07:59;-2.20;99.90
26081;DHT22;13991;51.174;4.438;2022-12-18T01:10:25;-2.30;99.90
26081;DHT22;13991;51.174;4.438;2022-12-18T01:12:51;-2.30;99.90
26081;DHT22;13991;51.174;4.438;2022-12-18T01:15:18;-2.40;99.90
26081;DHT22;13991;51.174;4.438;2022-12-18T01:17:44;-2.40;99.90
26081;DHT22;13991;51.174;4.438;2022-12-18T01:20:11;-2.40;99.90
26081;DHT22;13991;51.174;4.438;2022-12-18T01:22:37;-2.30;99.90
26081;DHT22;13991;51.174;4.438;2022-12-18T01:25:03;-2.40;99.90
26081;DHT22;13991;51.174;4.438;2022-12-18T01:27:30;-2.50;99.90
26081;DHT22;13991;51.174;4.438;2022-12-18T01:29:55;-2.50;99.90
26081;DHT22;13991;51.174;4.438;2022-12-18T01:32:21;-2.40;99.90
26081;DHT22;13991;51.174;4.438;2022-12-18T01:34:47;-2.50;99.90
26081;DHT22;13991;51.174;4.438;2022-12-18T01:37:13;-2.50;99.90
26081;DHT22;13991;51.174;4.438;2022-12-18T01:39:39;-2.50;99.90
26081;DHT22;13991;51.174;4.438;2022-12-18T01:42:10;-2.30;99.90
26081;DHT22;13991;51.174;4.438;2022-12-18T01:44:56;-2.40;99.90
26081;DHT22;13991;51.174;4.438;2022-12-18T01:50:04;-2.50;99.90
26081;DHT22;13991;51.174;4.438;2022-12-18T01:52:32;-2.60;99.90
26081;DHT22;13991;51.174;4.438;2022-12-18T01:54:59;-2.50;99.90
26081;DHT22;13991;51.174;4.438;2022-12-18T01:57:26;-2.30;99.90
26081;DHT22;13991;51.174;4.438;2022-12-18T01:59:54;-2.40;99.90
26081;DHT22;13991;51.174;4.438;2022-12-18T02:02:22;-2.40;99.90
26081;DHT22;13991;51.174;4.438;2022-12-18T02:04:47;-2.40;99.90
26081;DHT22;13991;51.174;4.438;2022-12-18T02:12:23;-2.40;99.90
26081;DHT22;13991;51.174;4.438;2022-12-18T02:14:55;-2.50;99.90
26081;DHT22;13991;51.174;4.438;2022-12-18T02:17:28;-2.40;99.90
26081;DHT22;13991;51.174;4.438;2022-12-18T02:20:06;-2.40;99.90
26081;DHT22;13991;51.174;4.438;2022-12-18T02:25:42;-2.50;99.90
26081;DHT22;13991;51.174;4.438;2022-12-18T02:28:15;-2.60;99.90
26081;DHT22;13991;51.174;4.438;2022-12-18T02:30:42;-2.60;99.90
26081;DHT22;13991;51.174;4.438;2022-12-18T02:33:09;-2.60;99.90
26081;DHT22;13991;51.174;4.438;2022-12-18T02:35:37;-2.60;99.90
26081;DHT22;13991;51.174;4.438;2022-12-18T02:38:04;-2.70;99.90
26081;DHT22;13991;51.174;4.438;2022-12-18T02:40:30;-2.70;99.90
26081;DHT22;13991;51.174;4.438;2022-12-18T02:43:06;-2.60;99.90
26081;DHT22;13991;51.174;4.438;2022-12-18T02:45:32;-2.70;99.90
26081;DHT22;13991;51.174;4.438;2022-12-18T02:47:58;-2.50;99.90
26081;DHT22;13991;51.174;4.438;2022-12-18T02:53:21;-2.70;99.90
26081;DHT22;13991;51.174;4.438;2022-12-18T02:58:58;-2.80;99.90
26081;DHT22;13991;51.174;4.438;2022-12-18T03:01:55;-2.70;99.90
26081;DHT22;13991;51.174;4.438;2022-12-18T03:04:38;-2.50;99.90
26081;DHT22;13991;51.174;4.438;2022-12-18T03:07:12;-2.50;99.90
26081;DHT22;13991;51.174;4.438;2022-12-18T03:09:43;-2.60;99.90
26081;DHT22;13991;51.174;4.438;2022-12-18T03:12:29;-2.70;99.90
26081;DHT22;13991;51.174;4.438;2022-12-18T03:15:07;-2.70;99.90
26081;DHT22;13991;51.174;4.438;2022-12-18T03:17:34;-2.70;99.90
26081;DHT22;13991;51.174;4.438;2022-12-18T03:20:05;-2.80;99.90
26081;DHT22;13991;51.174;4.438;2022-12-18T03:22:34;-2.70;99.90
26081;DHT22;13991;51.174;4.438;2022-12-18T03:25:03;-2.80;99.90
26081;DHT22;13991;51.174;4.438;2022-12-18T03:27:32;-2.70;99.90
26081;DHT22;13991;51.174;4.438;2022-12-18T03:30:08;-2.70;99.90
26081;DHT22;13991;51.174;4.438;2022-12-18T03:32:47;-2.60;99.90
26081;DHT22;13991;51.174;4.438;2022-12-18T03:35:19;-2.70;99.90
26081;DHT22;13991;51.174;4.438;2022-12-18T03:37:46;-2.60;99.90
26081;DHT22;13991;51.174;4.438;2022-12-18T03:40:12;-2.60;99.90
26081;DHT22;13991;51.174;4.438;2022-12-18T03:42:48;-2.70;99.90
26081;DHT22;13991;51.174;4.438;2022-12-18T03:45:34;-2.60;99.90
26081;DHT22;13991;51.174;4.438;2022-12-18T03:48:24;-2.50;99.90
26081;DHT22;13991;51.174;4.438;2022-12-18T03:51:04;-2.60;99.90
26081;DHT22;13991;51.174;4.438;2022-12-18T03:53:47;-2.60;99.90
26081;DHT22;13991;51.174;4.438;2022-12-18T03:56:15;-2.60;99.90
26081;DHT22;13991;51.174;4.438;2022-12-18T03:58:43;-2.60;99.90
26081;DHT22;13991;51.174;4.438;2022-12-18T04:01:13;-2.60;99.90
26081;DHT22;13991;51.174;4.438;2022-12-18T04:03:41;-2.60;99.90
26081;DHT22;13991;51.174;4.438;2022-12-18T04:06:08;-2.50;99.90
26081;DHT22;13991;51.174;4.438;2022-12-18T04:08:35;-2.50;99.90
26081;DHT22;13991;51.174;4.438;2022-12-18T04:11:01;-2.50;99.90
26081;DHT22;13991;51.174;4.438;2022-12-18T04:13:31;-2.50;99.90
26081;DHT22;13991;51.174;4.438;2022-12-18T04:15:57;-2.50;99.90
26081;DHT22;13991;51.174;4.438;2022-12-18T04:18:22;-2.60;99.90
26081;DHT22;13991;51.174;4.438;2022-12-18T04:20:48;-2.60;99.90
26081;DHT22;13991;51.174;4.438;2022-12-18T04:23:14;-2.60;99.90
26081;DHT22;13991;51.174;4.438;2022-12-18T04:25:39;-2.70;99.90
26081;DHT22;13991;51.174;4.438;2022-12-18T04:28:05;-2.70;99.90
26081;DHT22;13991;51.174;4.438;2022-12-18T04:30:31;-2.60;99.90
26081;DHT22;13991;51.174;4.438;2022-12-18T04:32:57;-2.80;99.90
26081;DHT22;13991;51.174;4.438;2022-12-18T04:35:22;-2.80;99.90
26081;DHT22;13991;51.174;4.438;2022-12-18T04:37:48;-2.80;99.90
26081;DHT22;13991;51.174;4.438;2022-12-18T04:40:17;-2.80;99.90
26081;DHT22;13991;51.174;4.438;2022-12-18T04:42:42;-2.80;99.90
26081;DHT22;13991;51.174;4.438;2022-12-18T04:45:08;-2.80;99.90
26081;DHT22;13991;51.174;4.438;2022-12-18T04:47:34;-2.80;99.90
26081;DHT22;13991;51.174;4.438;2022-12-18T04:50:00;-2.90;99.90
26081;DHT22;13991;51.174;4.438;2022-12-18T04:52:25;-2.90;99.90
26081;DHT22;13991;51.174;4.438;2022-12-18T04:54:52;-2.90;99.90
26081;DHT22;13991;51.174;4.438;2022-12-18T04:57:18;-2.70;99.90
26081;DHT22;13991;51.174;4.438;2022-12-18T04:59:44;-2.90;99.90
26081;DHT22;13991;51.174;4.438;2022-12-18T05:02:10;-2.90;99.90
26081;DHT22;13991;51.174;4.438;2022-12-18T05:04:36;-2.90;99.90
26081;DHT22;13991;51.174;4.438;2022-12-18T05:07:01;-2.90;99.90
26081;DHT22;13991;51.174;4.438;2022-12-18T05:09:27;-3.00;99.90
26081;DHT22;13991;51.174;4.438;2022-12-18T05:11:53;-2.90;99.90
26081;DHT22;13991;51.174;4.438;2022-12-18T05:14:19;-2.90;99.90
26081;DHT22;13991;51.174;4.438;2022-12-18T05:16:45;-2.90;99.90
26081;DHT22;13991;51.174;4.438;2022-12-18T05:19:10;-2.80;99.90
26081;DHT22;13991;51.174;4.438;2022-12-18T05:21:36;-2.90;99.90
26081;DHT22;13991;51.174;4.438;2022-12-18T05:24:01;-2.90;99.90
26081;DHT22;13991;51.174;4.438;2022-12-18T05:26:27;-2.90;99.90
26081;DHT22;13991;51.174;4.438;2022-12-18T05:28:53;-2.90;99.90
26081;DHT22;13991;51.174;4.438;2022-12-18T05:31:18;-2.70;99.90
26081;DHT22;13991;51.174;4.438;2022-12-18T05:33:44;-2.80;99.90
26081;DHT22;13991;51.174;4.438;2022-12-18T05:36:10;-2.90;99.90
26081;DHT22;13991;51.174;4.438;2022-12-18T05:38:37;-3.00;99.90
26081;DHT22;13991;51.174;4.438;2022-12-18T05:41:04;-2.90;99.90
26081;DHT22;13991;51.174;4.438;2022-12-18T05:43:31;-2.90;99.90
26081;DHT22;13991;51.174;4.438;2022-12-18T05:45:56;-2.90;99.90
26081;DHT22;13991;51.174;4.438;2022-12-18T05:48:23;-2.90;99.90
26081;DHT22;13991;51.174;4.438;2022-12-18T05:50:49;-3.00;99.90
26081;DHT22;13991;51.174;4.438;2022-12-18T05:53:17;-3.00;99.90
26081;DHT22;13991;51.174;4.438;2022-12-18T05:55:43;-2.90;99.90
26081;DHT22;13991;51.174;4.438;2022-12-18T05:58:10;-3.10;99.90
26081;DHT22;13991;51.174;4.438;2022-12-18T06:00:38;-3.10;99.90
26081;DHT22;13991;51.174;4.438;2022-12-18T06:03:09;-3.00;99.90
26081;DHT22;13991;51.174;4.438;2022-12-18T06:05:40;-3.10;99.90
26081;DHT22;13991;51.174;4.438;2022-12-18T06:08:06;-3.10;99.90
26081;DHT22;13991;51.174;4.438;2022-12-18T06:10:32;-3.00;99.90
26081;DHT22;13991;51.174;4.438;2022-12-18T06:12:58;-2.80;99.90
26081;DHT22;13991;51.174;4.438;2022-12-18T06:15:24;-3.10;99.90
26081;DHT22;13991;51.174;4.438;2022-12-18T06:17:49;-3.00;99.90
26081;DHT22;13991;51.174;4.438;2022-12-18T06:20:16;-3.00;99.90
26081;DHT22;13991;51.174;4.438;2022-12-18T06:22:41;-2.90;99.90
26081;DHT22;13991;51.174;4.438;2022-12-18T06:25:07;-2.80;99.90
26081;DHT22;13991;51.174;4.438;2022-12-18T06:27:33;-2.80;99.90
26081;DHT22;13991;51.174;4.438;2022-12-18T06:29:59;-2.80;99.90
26081;DHT22;13991;51.174;4.438;2022-12-18T06:32:25;-2.90;99.90
26081;DHT22;13991;51.174;4.438;2022-12-18T06:34:51;-2.90;99.90
26081;DHT22;13991;51.174;4.438;2022-12-18T06:37:17;-2.90;99.90
26081;DHT22;13991;51.174;4.438;2022-12-18T06:39:42;-3.00;99.90
26081;DHT22;13991;51.174;4.438;2022-12-18T06:42:08;-3.10;99.90
26081;DHT22;13991;51.174;4.438;2022-12-18T06:44:34;-3.10;99.90
26081;DHT22;13991;51.174;4.438;2022-12-18T06:47:00;-3.10;99.90
26081;DHT22;13991;51.174;4.438;2022-12-18T06:49:25;-3.10;99.90
26081;DHT22;13991;51.174;4.438;2022-12-18T06:51:51;-3.10;99.90
26081;DHT22;13991;51.174;4.438;2022-12-18T06:54:17;-3.10;99.90
26081;DHT22;13991;51.174;4.438;2022-12-18T06:56:46;-3.10;99.90
26081;DHT22;13991;51.174;4.438;2022-12-18T06:59:12;-3.10;99.90
26081;DHT22;13991;51.174;4.438;2022-12-18T07:01:38;-3.10;99.90
26081;DHT22;13991;51.174;4.438;2022-12-18T07:04:04;-3.10;99.90
26081;DHT22;13991;51.174;4.438;2022-12-18T07:06:30;-3.10;99.90
26081;DHT22;13991;51.174;4.438;2022-12-18T07:08:55;-3.20;99.90
26081;DHT22;13991;51.174;4.438;2022-12-18T07:11:21;-3.20;99.90
26081;DHT22;13991;51.174;4.438;2022-12-18T07:13:47;-3.10;99.90
26081;DHT22;13991;51.174;4.438;2022-12-18T07:16:20;-3.10;99.90
26081;DHT22;13991;51.174;4.438;2022-12-18T07:18:46;-3.10;99.90
26081;DHT22;13991;51.174;4.438;2022-12-18T07:21:15;-3.10;99.90
26081;DHT22;13991;51.174;4.438;2022-12-18T07:23:41;-2.90;99.90
26081;DHT22;13991;51.174;4.438;2022-12-18T07:26:12;-3.00;99.90
26081;DHT22;13991;51.174;4.438;2022-12-18T07:28:39;-3.00;99.90
26081;DHT22;13991;51.174;4.438;2022-12-18T07:31:06;-3.10;99.90
26081;DHT22;13991;51.174;4.438;2022-12-18T07:33:33;-3.00;99.90
26081;DHT22;13991;51.174;4.438;2022-12-18T07:36:04;-3.00;99.90
26081;DHT22;13991;51.174;4.438;2022-12-18T07:38:32;-3.00;99.90
26081;DHT22;13991;51.174;4.438;2022-12-18T07:41:02;-3.00;99.90
26081;DHT22;13991;51.174;4.438;2022-12-18T07:43:28;-3.00;99.90
26081;DHT22;13991;51.174;4.438;2022-12-18T07:45:54;-3.10;99.90
26081;DHT22;13991;51.174;4.438;2022-12-18T07:48:20;-3.10;99.90
26081;DHT22;13991;51.174;4.438;2022-12-18T07:50:45;-3.10;99.90
26081;DHT22;13991;51.174;4.438;2022-12-18T07:53:11;-3.10;99.90
26081;DHT22;13991;51.174;4.438;2022-12-18T07:55:36;-3.00;99.90
26081;DHT22;13991;51.174;4.438;2022-12-18T07:58:03;-3.10;99.90
26081;DHT22;13991;51.174;4.438;2022-12-18T08:00:30;-3.20;99.90
26081;DHT22;13991;51.174;4.438;2022-12-18T08:02:57;-3.10;99.90
26081;DHT22;13991;51.174;4.438;2022-12-18T08:05:23;-3.10;99.90
26081;DHT22;13991;51.174;4.438;2022-12-18T08:07:49;-3.00;99.90
26081;DHT22;13991;51.174;4.438;2022-12-18T08:10:15;-3.00;99.90
26081;DHT22;13991;51.174;4.438;2022-12-18T08:12:41;-3.00;99.90
26081;DHT22;13991;51.174;4.438;2022-12-18T08:15:07;-2.90;99.90
26081;DHT22;13991;51.174;4.438;2022-12-18T08:17:32;-2.90;99.90
26081;DHT22;13991;51.174;4.438;2022-12-18T08:19:58;-2.70;99.90
26081;DHT22;13991;51.174;4.438;2022-12-18T08:22:24;-2.70;99.90
26081;DHT22;13991;51.174;4.438;2022-12-18T08:24:50;-2.70;99.90
26081;DHT22;13991;51.174;4.438;2022-12-18T08:27:15;-2.60;99.90
26081;DHT22;13991;51.174;4.438;2022-12-18T08:29:41;-2.60;99.90
26081;DHT22;13991;51.174;4.438;2022-12-18T08:32:07;-2.70;99.90
26081;DHT22;13991;51.174;4.438;2022-12-18T08:34:32;-2.60;99.90
26081;DHT22;13991;51.174;4.438;2022-12-18T08:36:58;-2.60;99.90
26081;DHT22;13991;51.174;4.438;2022-12-18T08:39:24;-2.40;99.90
26081;DHT22;13991;51.174;4.438;2022-12-18T08:41:49;-2.50;99.90
26081;DHT22;13991;51.174;4.438;2022-12-18T08:44:33;-2.30;99.90
26081;DHT22;13991;51.174;4.438;2022-12-18T08:47:08;-2.40;99.90
26081;DHT22;13991;51.174;4.438;2022-12-18T08:49:34;-2.40;99.90
26081;DHT22;13991;51.174;4.438;2022-12-18T08:52:00;-2.30;99.90
26081;DHT22;13991;51.174;4.438;2022-12-18T08:54:29;-2.30;99.90
26081;DHT22;13991;51.174;4.438;2022-12-18T08:56:54;-2.20;99.90
26081;DHT22;13991;51.174;4.438;2022-12-18T08:59:20;-2.20;99.90
26081;DHT22;13991;51.174;4.438;2022-12-18T09:01:46;-2.10;99.90
26081;DHT22;13991;51.174;4.438;2022-12-18T09:04:12;-2.00;99.90
26081;DHT22;13991;51.174;4.438;2022-12-18T09:06:39;-2.00;99.90
26081;DHT22;13991;51.174;4.438;2022-12-18T09:09:05;-1.80;99.90
26081;DHT22;13991;51.174;4.438;2022-12-18T09:11:32;-1.60;99.90
26081;DHT22;13991;51.174;4.438;2022-12-18T09:13:59;-1.60;99.90
26081;DHT22;13991;51.174;4.438;2022-12-18T09:16:26;-1.50;99.90
26081;DHT22;13991;51.174;4.438;2022-12-18T09:18:56;-1.30;99.90
26081;DHT22;13991;51.174;4.438;2022-12-18T09:21:26;-1.30;99.90
26081;DHT22;13991;51.174;4.438;2022-12-18T09:23:54;-1.30;99.90
26081;DHT22;13991;51.174;4.438;2022-12-18T09:26:21;-1.30;99.90
26081;DHT22;13991;51.174;4.438;2022-12-18T09:28:47;-1.40;99.90
26081;DHT22;13991;51.174;4.438;2022-12-18T09:31:13;-1.40;99.90
26081;DHT22;13991;51.174;4.438;2022-12-18T09:33:39;-1.40;99.90
26081;DHT22;13991;51.174;4.438;2022-12-18T09:36:06;-1.20;99.90
26081;DHT22;13991;51.174;4.438;2022-12-18T09:38:33;-1.20;99.90
26081;DHT22;13991;51.174;4.438;2022-12-18T09:44:11;-1.00;99.90
26081;DHT22;13991;51.174;4.438;2022-12-18T09:46:44;-1.00;99.90
26081;DHT22;13991;51.174;4.438;2022-12-18T09:49:17;-0.90;99.90
26081;DHT22;13991;51.174;4.438;2022-12-18T09:52:31;-0.90;99.90
26081;DHT22;13991;51.174;4.438;2022-12-18T09:57:55;-0.80;99.90
26081;DHT22;13991;51.174;4.438;2022-12-18T10:00:26;-0.80;99.90
26081;DHT22;13991;51.174;4.438;2022-12-18T10:02:59;-0.80;99.90
26081;DHT22;13991;51.174;4.438;2022-12-18T10:10:52;-0.60;99.90
26081;DHT22;13991;51.174;4.438;2022-12-18T10:13:30;-0.50;99.90
26081;DHT22;13991;51.174;4.438;2022-12-18T10:21:18;-0.30;99.90
26081;DHT22;13991;51.174;4.438;2022-12-18T10:26:41;-0.30;99.90
26081;DHT22;13991;51.174;4.438;2022-12-18T10:29:12;-0.20;99.90
26081;DHT22;13991;51.174;4.438;2022-12-18T10:31:38;-0.30;99.90
26081;DHT22;13991;51.174;4.438;2022-12-18T10:34:13;-0.20;99.90
26081;DHT22;13991;51.174;4.438;2022-12-18T10:36:39;-0.20;99.90
26081;DHT22;13991;51.174;4.438;2022-12-18T10:39:21;-0.30;99.90
26081;DHT22;13991;51.174;4.438;2022-12-18T10:42:10;-0.30;99.90
26081;DHT22;13991;51.174;4.438;2022-12-18T10:44:36;-0.20;99.90
26081;DHT22;13991;51.174;4.438;2022-12-18T10:47:04;-0.30;99.90
26081;DHT22;13991;51.174;4.438;2022-12-18T10:49:33;-0.20;99.90
26081;DHT22;13991;51.174;4.438;2022-12-18T10:52:18;-0.20;99.90
26081;DHT22;13991;51.174;4.438;2022-12-18T10:54:55;-0.10;99.90
26081;DHT22;13991;51.174;4.438;2022-12-18T10:59:54;0.00;99.90
26081;DHT22;13991;51.174;4.438;2022-12-18T11:02:37;0.10;99.90
26081;DHT22;13991;51.174;4.438;2022-12-18T11:05:24;0.10;99.90
26081;DHT22;13991;51.174;4.438;2022-12-18T11:07:51;0.20;99.90
26081;DHT22;13991;51.174;4.438;2022-12-18T11:10:25;0.20;99.90
26081;DHT22;13991;51.174;4.438;2022-12-18T11:12:53;0.10;99.90
26081;DHT22;13991;51.174;4.438;2022-12-18T11:15:29;0.20;99.90
26081;DHT22;13991;51.174;4.438;2022-12-18T11:17:59;0.20;99.90
26081;DHT22;13991;51.174;4.438;2022-12-18T11:20:32;0.20;99.90
26081;DHT22;13991;51.174;4.438;2022-12-18T11:23:04;0.30;99.90
26081;DHT22;13991;51.174;4.438;2022-12-18T11:25:32;0.40;99.90
26081;DHT22;13991;51.174;4.438;2022-12-18T11:28:04;0.40;99.90
26081;DHT22;13991;51.174;4.438;2022-12-18T11:30:37;0.40;99.90
26081;DHT22;13991;51.174;4.438;2022-12-18T11:35:52;0.40;99.90
26081;DHT22;13991;51.174;4.438;2022-12-18T11:38:24;0.60;99.90
26081;DHT22;13991;51.174;4.438;2022-12-18T11:41:00;0.70;99.90
26081;DHT22;13991;51.174;4.438;2022-12-18T11:43:44;0.50;99.90
26081;DHT22;13991;51.174;4.438;2022-12-18T11:46:24;0.60;99.90
26081;DHT22;13991;51.174;4.438;2022-12-18T11:49:01;0.60;99.90
26081;DHT22;13991;51.174;4.438;2022-12-18T11:51:33;0.60;99.90
26081;DHT22;13991;51.174;4.438;2022-12-18T11:54:01;0.60;99.90
26081;DHT22;13991;51.174;4.438;2022-12-18T11:56:35;0.60;99.90
26081;DHT22;13991;51.174;4.438;2022-12-18T11:59:05;0.60;99.90
26081;DHT22;13991;51.174;4.438;2022-12-18T12:01:48;0.70;99.90
26081;DHT22;13991;51.174;4.438;2022-12-18T12:04:46;0.80;99.90
26081;DHT22;13991;51.174;4.438;2022-12-18T12:10:12;0.80;99.90
26081;DHT22;13991;51.174;4.438;2022-12-18T12:20:53;0.90;99.90
26081;DHT22;13991;51.174;4.438;2022-12-18T12:23:43;0.90;99.90
26081;DHT22;13991;51.174;4.438;2022-12-18T12:29:35;1.20;99.90
26081;DHT22;13991;51.174;4.438;2022-12-18T12:40:20;1.20;99.90
26081;DHT22;13991;51.174;4.438;2022-12-18T12:43:27;1.20;99.90
26081;DHT22;13991;51.174;4.438;2022-12-18T12:46:04;1.30;99.90
26081;DHT22;13991;51.174;4.438;2022-12-18T12:48:50;1.20;99.90
26081;DHT22;13991;51.174;4.438;2022-12-18T12:53:47;1.20;99.90
26081;DHT22;13991;51.174;4.438;2022-12-18T12:56:16;1.20;99.90
26081;DHT22;13991;51.174;4.438;2022-12-18T13:01:28;1.20;99.90
26081;DHT22;13991;51.174;4.438;2022-12-18T13:04:18;1.30;99.90
26081;DHT22;13991;51.174;4.438;2022-12-18T13:06:53;1.40;99.90
26081;DHT22;13991;51.174;4.438;2022-12-18T13:09:21;1.20;99.90
26081;DHT22;13991;51.174;4.438;2022-12-18T13:11:47;1.30;99.90
26081;DHT22;13991;51.174;4.438;2022-12-18T13:14:37;1.40;99.90
26081;DHT22;13991;51.174;4.438;2022-12-18T13:22:35;1.40;99.90
26081;DHT22;13991;51.174;4.438;2022-12-18T13:25:02;1.40;99.90
26081;DHT22;13991;51.174;4.438;2022-12-18T13:43:39;1.50;99.90
26081;DHT22;13991;51.174;4.438;2022-12-18T13:51:20;1.50;99.90
26081;DHT22;13991;51.174;4.438;2022-12-18T13:53:56;1.50;99.90
26081;DHT22;13991;51.174;4.438;2022-12-18T13:56:26;1.50;99.90
26081;DHT22;13991;51.174;4.438;2022-12-18T13:59:17;1.30;99.90
26081;DHT22;13991;51.174;4.438;2022-12-18T14:02:13;1.50;99.90
26081;DHT22;13991;51.174;4.438;2022-12-18T14:04:39;1.40;99.90
26081;DHT22;13991;51.174;4.438;2022-12-18T14:07:07;1.50;99.90
26081;DHT22;13991;51.174;4.438;2022-12-18T14:09:39;1.60;99.90
26081;DHT22;13991;51.174;4.438;2022-12-18T14:12:05;1.60;99.90
26081;DHT22;13991;51.174;4.438;2022-12-18T14:14:52;1.60;99.90
26081;DHT22;13991;51.174;4.438;2022-12-18T14:17:18;1.50;99.90
26081;DHT22;13991;51.174;4.438;2022-12-18T14:19:46;1.60;99.90
26081;DHT22;13991;51.174;4.438;2022-12-18T14:22:21;1.60;99.90
26081;DHT22;13991;51.174;4.438;2022-12-18T14:28:02;1.70;99.90
26081;DHT22;13991;51.174;4.438;2022-12-18T14:30:37;1.60;99.90
26081;DHT22;13991;51.174;4.438;2022-12-18T14:35:28;1.70;99.90
26081;DHT22;13991;51.174;4.438;2022-12-18T14:40:43;1.60;99.90
26081;DHT22;13991;51.174;4.438;2022-12-18T14:43:12;1.80;99.90
26081;DHT22;13991;51.174;4.438;2022-12-18T14:45:42;1.80;99.90
26081;DHT22;13991;51.174;4.438;2022-12-18T14:50:38;1.70;99.90
26081;DHT22;13991;51.174;4.438;2022-12-18T14:53:22;1.70;99.90
26081;DHT22;13991;51.174;4.438;2022-12-18T14:55:49;1.60;99.90
26081;DHT22;13991;51.174;4.438;2022-12-18T14:58:17;1.70;99.90
26081;DHT22;13991;51.174;4.438;2022-12-18T15:00:43;1.70;99.90
26081;DHT22;13991;51.174;4.438;2022-12-18T15:03:09;1.50;99.90
26081;DHT22;13991;51.174;4.438;2022-12-18T15:05:35;1.50;99.90
26081;DHT22;13991;51.174;4.438;2022-12-18T15:08:02;1.50;99.90
26081;DHT22;13991;51.174;4.438;2022-12-18T15:10:31;1.60;99.90
26081;DHT22;13991;51.174;4.438;2022-12-18T15:18:13;1.50;99.90
26081;DHT22;13991;51.174;4.438;2022-12-18T15:20:40;1.60;99.90
26081;DHT22;13991;51.174;4.438;2022-12-18T15:26:07;1.60;99.90
26081;DHT22;13991;51.174;4.438;2022-12-18T15:28:37;1.60;99.90
26081;DHT22;13991;51.174;4.438;2022-12-18T15:31:57;1.60;99.90
26081;DHT22;13991;51.174;4.438;2022-12-18T15:36:19;1.80;99.90
26081;DHT22;13991;51.174;4.438;2022-12-18T15:38:50;1.80;99.90
26081;DHT22;13991;51.174;4.438;2022-12-18T15:41:18;1.80;99.90
26081;DHT22;13991;51.174;4.438;2022-12-18T15:43:45;1.70;99.90
26081;DHT22;13991;51.174;4.438;2022-12-18T15:46:22;1.80;99.90
26081;DHT22;13991;51.174;4.438;2022-12-18T15:48:53;1.80;99.90
26081;DHT22;13991;51.174;4.438;2022-12-18T15:51:34;2.00;99.90
26081;DHT22;13991;51.174;4.438;2022-12-18T15:54:03;1.90;99.90
26081;DHT22;13991;51.174;4.438;2022-12-18T15:56:29;1.80;99.90
26081;DHT22;13991;51.174;4.438;2022-12-18T15:59:18;1.80;99.90
26081;DHT22;13991;51.174;4.438;2022-12-18T16:01:49;1.80;99.90
26081;DHT22;13991;51.174;4.438;2022-12-18T16:04:17;1.90;99.90
26081;DHT22;13991;51.174;4.438;2022-12-18T16:06:45;2.00;99.90
26081;DHT22;13991;51.174;4.438;2022-12-18T16:09:11;2.00;99.90
26081;DHT22;13991;51.174;4.438;2022-12-18T16:11:38;2.10;99.90
26081;DHT22;13991;51.174;4.438;2022-12-18T16:14:23;2.10;99.90
26081;DHT22;13991;51.174;4.438;2022-12-18T16:16:51;2.10;99.90
26081;DHT22;13991;51.174;4.438;2022-12-18T16:19:17;1.90;99.90
26081;DHT22;13991;51.174;4.438;2022-12-18T16:21:44;1.80;99.90
26081;DHT22;13991;51.174;4.438;2022-12-18T16:24:18;1.90;99.90
26081;DHT22;13991;51.174;4.438;2022-12-18T16:26:44;2.00;99.90
26081;DHT22;13991;51.174;4.438;2022-12-18T16:29:13;1.90;99.90
26081;DHT22;13991;51.174;4.438;2022-12-18T16:31:40;1.90;99.90
26081;DHT22;13991;51.174;4.438;2022-12-18T16:34:23;2.00;99.90
26081;DHT22;13991;51.174;4.438;2022-12-18T16:36:52;2.10;99.90
26081;DHT22;13991;51.174;4.438;2022-12-18T16:39:21;2.00;99.90
26081;DHT22;13991;51.174;4.438;2022-12-18T16:41:47;2.00;99.90
26081;DHT22;13991;51.174;4.438;2022-12-18T16:44:13;2.00;99.90
26081;DHT22;13991;51.174;4.438;2022-12-18T16:46:43;1.90;99.90
26081;DHT22;13991;51.174;4.438;2022-12-18T16:49:12;1.90;99.90
26081;DHT22;13991;51.174;4.438;2022-12-18T16:51:37;2.00;99.90
26081;DHT22;13991;51.174;4.438;2022-12-18T16:54:03;2.10;99.90
26081;DHT22;13991;51.174;4.438;2022-12-18T16:56:29;1.90;99.90
26081;DHT22;13991;51.174;4.438;2022-12-18T16:58:57;2.10;99.90
26081;DHT22;13991;51.174;4.438;2022-12-18T17:01:24;2.10;99.90
26081;DHT22;13991;51.174;4.438;2022-12-18T17:03:55;2.10;99.90
26081;DHT22;13991;51.174;4.438;2022-12-18T17:06:22;2.10;99.90
26081;DHT22;13991;51.174;4.438;2022-12-18T17:08:49;2.30;99.90
26081;DHT22;13991;51.174;4.438;2022-12-18T17:11:19;2.20;99.90
26081;DHT22;13991;51.174;4.438;2022-12-18T17:13:44;2.20;99.90
26081;DHT22;13991;51.174;4.438;2022-12-18T17:16:10;2.10;99.90
26081;DHT22;13991;51.174;4.438;2022-12-18T17:18:36;2.20;99.90
26081;DHT22;13991;51.174;4.438;2022-12-18T17:21:04;2.20;99.90
26081;DHT22;13991;51.174;4.438;2022-12-18T17:23:31;2.20;99.90
26081;DHT22;13991;51.174;4.438;2022-12-18T17:25:58;2.30;99.90
26081;DHT22;13991;51.174;4.438;2022-12-18T17:28:27;2.30;99.90
26081;DHT22;13991;51.174;4.438;2022-12-18T17:30:54;2.30;99.90
26081;DHT22;13991;51.174;4.438;2022-12-18T17:33:21;2.30;99.90
26081;DHT22;13991;51.174;4.438;2022-12-18T17:35:47;2.30;99.90
26081;DHT22;13991;51.174;4.438;2022-12-18T17:38:13;2.50;99.90
26081;DHT22;13991;51.174;4.438;2022-12-18T17:40:39;2.40;99.90
26081;DHT22;13991;51.174;4.438;2022-12-18T17:43:06;2.40;99.90
26081;DHT22;13991;51.174;4.438;2022-12-18T17:45:36;2.50;99.90
26081;DHT22;13991;51.174;4.438;2022-12-18T17:48:06;2.30;99.90